createdAt,value
2023-02-16T00:00:54.472Z,6.44
2023-02-16T00:03:22.612Z,6.44
2023-02-16T00:05:50.261Z,6.47
2023-02-16T00:08:17.002Z,6.46
2023-02-16T00:11:05.424Z,6.48
2023-02-16T00:13:53.094Z,6.51
2023-02-16T00:16:23.071Z,6.56
2023-02-16T00:18:50.927Z,6.57
2023-02-16T00:21:18.718Z,6.61
2023-02-16T00:23:45.379Z,6.61
2023-02-16T00:26:24.152Z,6.64
2023-02-16T00:28:54.098Z,6.64
2023-02-16T00:31:23.316Z,6.64
2023-02-16T00:33:50.272Z,6.67
2023-02-16T00:36:16.830Z,6.71
2023-02-16T00:38:43.388Z,6.71
2023-02-16T00:41:38.721Z,6.74
2023-02-16T00:44:17.612Z,6.74
2023-02-16T00:46:45.083Z,6.76
2023-02-16T00:49:19.200Z,6.78
2023-02-16T00:51:52.548Z,6.80
2023-02-16T00:54:19.135Z,6.80
2023-02-16T00:56:46.535Z,6.81
2023-02-16T00:59:20.614Z,6.83
2023-02-16T01:01:47.861Z,6.84
2023-02-16T01:04:21.074Z,6.86
2023-02-16T01:07:06.843Z,6.85
2023-02-16T01:09:52.212Z,6.88
2023-02-16T01:12:21.285Z,6.87
2023-02-16T01:14:52.313Z,6.87
2023-02-16T01:17:19.105Z,6.88
2023-02-16T01:19:45.672Z,6.88
2023-02-16T01:22:12.293Z,6.87
2023-02-16T01:24:38.791Z,6.88
2023-02-16T01:27:05.321Z,6.88
2023-02-16T01:29:31.827Z,6.87
2023-02-16T01:31:58.443Z,6.87
2023-02-16T01:34:25.525Z,6.87
2023-02-16T01:36:53.376Z,6.86
2023-02-16T01:39:21.166Z,6.85
2023-02-16T01:42:23.789Z,6.84
2023-02-16T01:44:54.928Z,6.85
2023-02-16T01:47:38.373Z,6.85
2023-02-16T01:50:17.054Z,6.85
2023-02-16T01:52:50.536Z,6.85
2023-02-16T01:55:31.406Z,6.85
2023-02-16T01:58:07.282Z,6.85
2023-02-16T02:00:53.139Z,6.85
2023-02-16T02:03:42.811Z,6.85
2023-02-16T02:06:12.509Z,6.85
2023-02-16T02:08:46.936Z,6.85
2023-02-16T02:11:28.350Z,6.86
2023-02-16T02:14:17.936Z,6.86
2023-02-16T02:16:57.029Z,6.86
2023-02-16T02:19:23.733Z,6.85
2023-02-16T02:22:38.200Z,6.83
2023-02-16T02:25:24.041Z,6.85
2023-02-16T02:28:15.330Z,6.84
2023-02-16T02:30:56.602Z,6.82
2023-02-16T02:33:37.486Z,6.82
2023-02-16T02:36:29.275Z,6.81
2023-02-16T02:39:14.164Z,6.81
2023-02-16T02:42:04.009Z,6.82
2023-02-16T02:44:33.645Z,6.82
2023-02-16T02:47:00.289Z,6.81
2023-02-16T02:49:26.846Z,6.81
2023-02-16T02:51:53.674Z,6.81
2023-02-16T02:54:43.816Z,6.80
2023-02-16T02:57:37.914Z,6.80
2023-02-16T03:00:23.248Z,6.81
2023-02-16T03:02:53.679Z,6.80
2023-02-16T03:05:23.542Z,6.81
2023-02-16T03:07:56.411Z,6.82
2023-02-16T03:10:45.593Z,6.79
2023-02-16T03:13:25.908Z,6.82
2023-02-16T03:15:57.205Z,6.81
2023-02-16T03:18:44.696Z,6.81
2023-02-16T03:21:33.258Z,6.82
2023-02-16T03:24:22.317Z,6.83
2023-02-16T03:27:09.493Z,6.84
2023-02-16T03:29:37.497Z,6.83
2023-02-16T03:32:04.476Z,6.84
2023-02-16T03:34:33.306Z,6.83
2023-02-16T03:37:00.884Z,6.84
2023-02-16T03:39:29.119Z,6.85
2023-02-16T03:41:57.677Z,6.86
2023-02-16T03:44:25.050Z,6.87
2023-02-16T03:46:51.950Z,6.88
2023-02-16T03:49:19.388Z,6.88
2023-02-16T03:51:46.374Z,6.89
2023-02-16T03:54:13.572Z,6.90
2023-02-16T03:56:40.285Z,6.91
2023-02-16T03:59:06.862Z,6.92
2023-02-16T04:01:33.411Z,6.93
2023-02-16T04:04:00.063Z,6.93
2023-02-16T04:06:26.625Z,6.94
2023-02-16T04:08:54.551Z,6.96
2023-02-16T04:11:39.612Z,6.97
2023-02-16T04:14:06.138Z,6.98
2023-02-16T04:16:32.729Z,6.99
2023-02-16T04:18:59.329Z,7.00
2023-02-16T04:21:25.836Z,7.01
2023-02-16T04:23:52.372Z,7.02
2023-02-16T04:26:18.869Z,7.01
2023-02-16T04:28:45.367Z,7.04
2023-02-16T04:31:12.175Z,7.05
2023-02-16T04:33:38.845Z,7.04
2023-02-16T04:36:05.696Z,7.05
2023-02-16T04:38:32.286Z,7.06
2023-02-16T04:40:58.849Z,7.05
2023-02-16T04:43:25.382Z,7.05
2023-02-16T04:45:52.182Z,7.06
2023-02-16T04:48:18.733Z,7.07
2023-02-16T04:50:45.221Z,7.08
2023-02-16T04:53:11.719Z,7.08
2023-02-16T04:55:38.265Z,7.08
2023-02-16T04:58:04.806Z,7.10
2023-02-16T05:00:31.385Z,7.10
2023-02-16T05:02:57.934Z,7.10
2023-02-16T05:05:24.492Z,7.10
2023-02-16T05:07:51.002Z,7.12
2023-02-16T05:10:17.600Z,7.11
2023-02-16T05:13:02.631Z,7.11
2023-02-16T05:15:29.195Z,7.12
2023-02-16T05:17:55.748Z,7.13
2023-02-16T05:20:42.333Z,7.13
2023-02-16T05:23:08.989Z,7.14
2023-02-16T05:25:35.507Z,7.15
2023-02-16T05:28:02.062Z,7.15
2023-02-16T05:30:28.752Z,7.15
2023-02-16T05:32:55.428Z,7.17
2023-02-16T05:35:22.363Z,7.16
2023-02-16T05:37:48.870Z,7.16
2023-02-16T05:40:15.379Z,7.18
2023-02-16T05:42:41.889Z,7.18
2023-02-16T05:45:08.837Z,7.18
2023-02-16T05:47:35.451Z,7.19
2023-02-16T05:50:02.047Z,7.19
2023-02-16T05:52:28.554Z,7.21
2023-02-16T05:54:55.033Z,7.19
2023-02-16T05:57:21.566Z,7.21
2023-02-16T05:59:48.060Z,7.20
2023-02-16T06:02:14.630Z,7.22
2023-02-16T06:04:41.170Z,7.22
2023-02-16T06:07:07.742Z,7.23
2023-02-16T06:09:34.260Z,7.23
2023-02-16T06:12:00.910Z,7.24
2023-02-16T06:14:27.486Z,7.24
2023-02-16T06:16:54.100Z,7.25
2023-02-16T06:19:21.060Z,7.25
2023-02-16T06:21:48.565Z,7.24
2023-02-16T06:24:15.418Z,7.24
2023-02-16T06:26:42.242Z,7.25
2023-02-16T06:29:09.367Z,7.26
2023-02-16T06:31:36.821Z,7.27
2023-02-16T06:34:04.239Z,7.27
2023-02-16T06:36:31.426Z,7.28
2023-02-16T06:38:58.069Z,7.29
2023-02-16T06:41:40.161Z,7.28
2023-02-16T06:44:12.359Z,7.31
2023-02-16T06:46:40.302Z,7.30
2023-02-16T06:49:06.981Z,7.32
2023-02-16T06:51:33.694Z,7.32
2023-02-16T06:54:00.349Z,7.32
2023-02-16T06:56:27.017Z,7.34
2023-02-16T06:58:53.753Z,7.34
2023-02-16T07:01:23.390Z,7.35
2023-02-16T07:03:51.024Z,7.36
2023-02-16T07:06:18.315Z,7.36
2023-02-16T07:08:44.954Z,7.36
2023-02-16T07:11:12.367Z,7.36
2023-02-16T07:13:38.898Z,7.39
2023-02-16T07:16:06.952Z,7.39
2023-02-16T07:18:33.766Z,7.39
2023-02-16T07:21:00.503Z,7.40
2023-02-16T07:23:27.265Z,7.42
2023-02-16T07:25:53.889Z,7.42
2023-02-16T07:28:20.412Z,7.43
2023-02-16T07:30:46.956Z,7.46
2023-02-16T07:33:15.037Z,7.46
2023-02-16T07:35:42.955Z,7.46
2023-02-16T07:38:09.839Z,7.48
2023-02-16T07:40:36.675Z,7.48
2023-02-16T07:43:05.020Z,7.50
2023-02-16T07:45:35.267Z,7.51
2023-02-16T07:48:02.611Z,7.52
2023-02-16T07:50:29.215Z,7.54
2023-02-16T07:52:55.857Z,7.56
2023-02-16T07:55:22.352Z,7.56
2023-02-16T07:57:49.553Z,7.58
2023-02-16T08:00:16.632Z,7.60
2023-02-16T08:02:43.284Z,7.62
2023-02-16T08:05:09.943Z,7.64
2023-02-16T08:07:36.461Z,7.67
2023-02-16T08:10:03.044Z,7.67
2023-02-16T08:12:29.530Z,7.69
2023-02-16T08:14:56.044Z,7.70
2023-02-16T08:17:22.557Z,7.72
2023-02-16T08:19:50.446Z,7.73
2023-02-16T08:22:18.301Z,7.74
2023-02-16T08:24:44.926Z,7.75
2023-02-16T08:27:11.538Z,7.77
2023-02-16T08:29:38.173Z,7.79
2023-02-16T08:32:07.790Z,7.81
2023-02-16T08:34:35.235Z,7.83
2023-02-16T08:37:02.359Z,7.84
2023-02-16T08:39:31.362Z,7.86
2023-02-16T08:41:58.444Z,7.88
2023-02-16T08:44:26.019Z,7.90
2023-02-16T08:46:55.090Z,7.93
2023-02-16T08:49:24.068Z,7.95
2023-02-16T08:51:54.807Z,7.96
2023-02-16T08:54:30.308Z,7.99
2023-02-16T08:56:59.160Z,8.01
2023-02-16T08:59:28.421Z,8.04
2023-02-16T09:01:55.595Z,8.05
2023-02-16T09:04:22.666Z,8.07
2023-02-16T09:06:49.275Z,8.11
2023-02-16T09:09:16.757Z,8.13
2023-02-16T09:11:43.339Z,8.15
2023-02-16T09:14:10.556Z,8.19
2023-02-16T09:16:43.822Z,8.21
2023-02-16T09:19:10.330Z,8.24
2023-02-16T09:21:37.328Z,8.27
2023-02-16T09:24:05.059Z,8.30
2023-02-16T09:26:34.031Z,8.32
2023-02-16T09:29:01.893Z,8.35
2023-02-16T09:31:31.127Z,8.37
2023-02-16T09:34:00.540Z,8.40
2023-02-16T09:36:28.502Z,8.44
2023-02-16T09:38:56.245Z,8.47
2023-02-16T09:41:34.858Z,8.50
2023-02-16T09:44:07.374Z,8.54
2023-02-16T09:46:34.836Z,8.55
2023-02-16T09:49:03.791Z,8.59
2023-02-16T09:51:41.130Z,8.61
2023-02-16T09:54:53.180Z,8.64
2023-02-16T09:57:34.484Z,8.68
2023-02-16T10:00:04.565Z,8.69
2023-02-16T10:02:42.578Z,8.72
2023-02-16T10:05:17.398Z,8.76
2023-02-16T10:08:24.890Z,8.79
2023-02-16T10:11:28.010Z,8.80
2023-02-16T10:13:57.712Z,8.83
2023-02-16T10:16:32.135Z,8.86
2023-02-16T10:19:01.775Z,8.89
2023-02-16T10:21:31.346Z,8.90
2023-02-16T10:24:02.729Z,8.95
2023-02-16T10:26:39.689Z,8.98
2023-02-16T10:29:10.501Z,9.02
2023-02-16T10:31:43.465Z,9.04
2023-02-16T10:34:23.401Z,9.08
2023-02-16T10:37:11.954Z,9.12
2023-02-16T10:39:52.138Z,9.16
2023-02-16T10:42:42.070Z,9.21
2023-02-16T10:45:32.004Z,9.24
2023-02-16T10:47:59.174Z,9.29
2023-02-16T10:50:25.745Z,9.33
2023-02-16T10:52:58.005Z,9.37
2023-02-16T10:55:24.721Z,9.41
2023-02-16T10:57:58.265Z,9.46
2023-02-16T11:00:59.608Z,9.52
2023-02-16T11:03:31.886Z,9.57
2023-02-16T11:06:13.693Z,9.62
2023-02-16T11:08:57.180Z,9.67
2023-02-16T11:11:50.298Z,9.72
2023-02-16T11:14:25.055Z,9.75
2023-02-16T11:17:12.605Z,9.82
2023-02-16T11:19:52.703Z,9.86
2023-02-16T11:22:29.922Z,9.90
2023-02-16T11:24:56.624Z,9.94
2023-02-16T11:27:24.367Z,9.99
2023-02-16T11:29:50.944Z,10.04
2023-02-16T11:32:20.151Z,10.08
2023-02-16T11:34:49.712Z,10.13
2023-02-16T11:37:26.903Z,10.17
2023-02-16T11:39:56.656Z,10.21
2023-02-16T11:42:23.177Z,10.27
2023-02-16T11:44:57.111Z,10.31
2023-02-16T11:47:31.868Z,10.34
2023-02-16T11:50:28.574Z,10.42
2023-02-16T11:53:17.666Z,10.47
2023-02-16T11:55:48.103Z,10.51
2023-02-16T11:58:17.397Z,10.54
2023-02-16T12:00:51.130Z,10.59
2023-02-16T12:03:34.259Z,10.63
2023-02-16T12:06:19.587Z,10.67
2023-02-16T12:09:05.190Z,10.71
2023-02-16T12:11:40.711Z,10.73
2023-02-16T12:14:16.802Z,10.75
2023-02-16T12:17:01.870Z,10.83
2023-02-16T12:19:39.802Z,10.85
2023-02-16T12:22:18.232Z,10.87
2023-02-16T12:25:10.034Z,10.92
2023-02-16T12:27:51.075Z,10.96
2023-02-16T12:30:29.396Z,11.00
2023-02-16T12:33:06.359Z,11.05
2023-02-16T12:35:42.012Z,11.12
2023-02-16T12:38:19.414Z,11.18
2023-02-16T12:41:04.561Z,11.24
2023-02-16T12:44:02.976Z,11.31
2023-02-16T12:46:37.979Z,11.39
2023-02-16T12:49:21.208Z,11.46
2023-02-16T12:52:01.132Z,11.51
2023-02-16T12:54:37.279Z,11.55
2023-02-16T12:57:10.719Z,11.59
2023-02-16T13:00:18.516Z,11.63
2023-02-16T13:02:51.436Z,11.62
2023-02-16T13:05:31.155Z,11.66
2023-02-16T13:08:14.035Z,11.67
2023-02-16T13:10:54.099Z,11.69
2023-02-16T13:13:31.868Z,11.69
2023-02-16T13:16:29.169Z,11.71
2023-02-16T13:18:57.101Z,11.72
2023-02-16T13:21:50.802Z,11.74
2023-02-16T13:24:17.814Z,11.74
2023-02-16T13:27:16.316Z,11.76
2023-02-16T13:29:48.916Z,11.77
2023-02-16T13:32:28.433Z,11.78
2023-02-16T13:35:08.966Z,11.78
2023-02-16T13:38:01.277Z,11.81
2023-02-16T13:40:42.851Z,11.82
2023-02-16T13:43:42.599Z,11.82
2023-02-16T13:46:28.694Z,11.83
2023-02-16T13:48:55.801Z,11.85
2023-02-16T13:51:25.613Z,11.88
2023-02-16T13:54:03.187Z,11.90
2023-02-16T13:56:29.635Z,11.92
2023-02-16T13:58:58.544Z,11.94
2023-02-16T14:01:39.093Z,11.96
2023-02-16T14:04:12.886Z,11.99
2023-02-16T14:06:42.798Z,12.02
2023-02-16T14:09:12.141Z,12.04
2023-02-16T14:11:53.707Z,12.07
2023-02-16T14:14:26.380Z,12.09
2023-02-16T14:16:54.582Z,12.09
2023-02-16T14:19:26.605Z,12.12
2023-02-16T14:21:53.575Z,12.14
2023-02-16T14:24:26.108Z,12.16
2023-02-16T14:26:59.498Z,12.17
2023-02-16T14:29:34.874Z,12.18
2023-02-16T14:32:15.924Z,12.21
2023-02-16T14:35:08.138Z,12.20
2023-02-16T14:37:44.378Z,12.23
2023-02-16T14:40:13.104Z,12.24
2023-02-16T14:42:48.414Z,12.25
2023-02-16T14:45:57.504Z,12.26
2023-02-16T14:49:01.567Z,12.28
2023-02-16T14:51:38.653Z,12.28
2023-02-16T14:54:08.677Z,12.31
2023-02-16T14:56:52.994Z,12.30
2023-02-16T14:59:48.277Z,12.31
2023-02-16T15:02:29.938Z,12.31
2023-02-16T15:04:57.036Z,12.32
2023-02-16T15:07:26.142Z,12.33
2023-02-16T15:09:57.672Z,12.34
2023-02-16T15:12:30.486Z,12.37
2023-02-16T15:15:02.919Z,12.38
2023-02-16T15:17:45.698Z,12.40
2023-02-16T15:20:25.617Z,12.41
2023-02-16T15:23:01.512Z,12.42
2023-02-16T15:25:30.146Z,12.44
2023-02-16T15:28:00.484Z,12.45
2023-02-16T15:30:39.759Z,12.47
2023-02-16T15:33:23.069Z,12.49
2023-02-16T15:36:00.303Z,12.50
2023-02-16T15:38:39.034Z,12.52
2023-02-16T15:41:08.799Z,12.53
2023-02-16T15:43:47.897Z,12.53
2023-02-16T15:46:29.122Z,12.56
2023-02-16T15:48:56.111Z,12.56
2023-02-16T15:51:26.701Z,12.57
2023-02-16T15:53:56.078Z,12.57
2023-02-16T15:56:39.516Z,12.59
2023-02-16T15:59:35.861Z,12.58
2023-02-16T16:02:12.318Z,12.59
2023-02-16T16:04:45.734Z,12.60
2023-02-16T16:07:18.967Z,12.62
2023-02-16T16:09:46.788Z,12.63
2023-02-16T16:12:17.657Z,12.64
2023-02-16T16:14:51.942Z,12.63
2023-02-16T16:17:23.540Z,12.64
2023-02-16T16:19:51.356Z,12.65
2023-02-16T16:22:27.095Z,12.66
2023-02-16T16:24:53.601Z,12.65
2023-02-16T16:27:32.665Z,12.66
2023-02-16T16:30:21.188Z,12.66
2023-02-16T16:32:48.026Z,12.65
2023-02-16T16:35:23.070Z,12.65
2023-02-16T16:37:52.489Z,12.63
2023-02-16T16:40:19.724Z,12.63
2023-02-16T16:43:08.558Z,12.63
2023-02-16T16:45:41.387Z,12.61
2023-02-16T16:48:17.264Z,12.60
2023-02-16T16:50:44.004Z,12.59
2023-02-16T16:53:55.013Z,12.57
2023-02-16T16:56:22.057Z,12.54
2023-02-16T16:58:53.662Z,12.52
2023-02-16T17:01:21.460Z,12.50
2023-02-16T17:03:48.025Z,12.48
2023-02-16T17:06:14.901Z,12.45
2023-02-16T17:08:42.009Z,12.44
2023-02-16T17:11:26.524Z,12.41
2023-02-16T17:13:54.875Z,12.39
2023-02-16T17:16:31.250Z,12.38
2023-02-16T17:18:58.323Z,12.36
2023-02-16T17:21:24.822Z,12.34
2023-02-16T17:23:53.365Z,12.34
2023-02-16T17:26:20.331Z,12.31
2023-02-16T17:28:46.961Z,12.30
2023-02-16T17:31:13.796Z,12.29
2023-02-16T17:33:40.502Z,12.27
2023-02-16T17:36:08.489Z,12.27
2023-02-16T17:38:35.369Z,12.25
2023-02-16T17:41:01.971Z,12.23
2023-02-16T17:43:28.974Z,12.21
2023-02-16T17:45:57.295Z,12.18
2023-02-16T17:48:28.193Z,12.17
2023-02-16T17:50:55.542Z,12.15
2023-02-16T17:53:24.741Z,12.13
2023-02-16T17:55:54.293Z,12.11
2023-02-16T17:58:22.693Z,12.09
2023-02-16T18:00:49.396Z,12.08
2023-02-16T18:03:16.305Z,12.04
2023-02-16T18:05:42.887Z,12.03
2023-02-16T18:08:11.003Z,12.00
2023-02-16T18:10:40.062Z,11.98
2023-02-16T18:13:07.671Z,11.97
2023-02-16T18:15:34.342Z,11.96
2023-02-16T18:18:01.392Z,11.96
2023-02-16T18:20:28.032Z,11.93
2023-02-16T18:22:54.633Z,11.93
2023-02-16T18:25:21.368Z,11.92
2023-02-16T18:27:47.947Z,11.89
2023-02-16T18:30:16.464Z,11.89
2023-02-16T18:32:44.993Z,11.87
2023-02-16T18:35:13.285Z,11.87
2023-02-16T18:37:39.846Z,11.85
2023-02-16T18:40:08.589Z,11.85
2023-02-16T18:42:35.937Z,11.85
2023-02-16T18:45:02.973Z,11.84
2023-02-16T18:47:29.517Z,11.83
2023-02-16T18:49:56.395Z,11.82
2023-02-16T18:52:23.053Z,11.81
2023-02-16T18:54:49.743Z,11.81
2023-02-16T18:57:16.345Z,11.80
2023-02-16T18:59:43.512Z,11.79
2023-02-16T19:02:12.927Z,11.79
2023-02-16T19:04:39.910Z,11.79
2023-02-16T19:07:06.725Z,11.77
2023-02-16T19:09:33.718Z,11.77
2023-02-16T19:12:00.438Z,11.77
2023-02-16T19:14:27.176Z,11.74
2023-02-16T19:16:53.740Z,11.75
2023-02-16T19:19:20.260Z,11.75
2023-02-16T19:21:46.762Z,11.73
2023-02-16T19:24:13.655Z,11.73
2023-02-16T19:26:40.740Z,11.72
2023-02-16T19:29:07.290Z,11.74
2023-02-16T19:31:35.572Z,11.73
2023-02-16T19:34:02.413Z,11.71
2023-02-16T19:36:31.514Z,11.71
2023-02-16T19:38:58.586Z,11.70
2023-02-16T19:41:28.190Z,11.70
2023-02-16T19:43:55.704Z,11.69
2023-02-16T19:46:23.463Z,11.69
2023-02-16T19:48:50.525Z,11.70
2023-02-16T19:51:18.237Z,11.69
2023-02-16T19:53:45.073Z,11.70
2023-02-16T19:56:18.183Z,11.69
2023-02-16T19:58:45.240Z,11.67
2023-02-16T20:01:17.136Z,11.68
2023-02-16T20:03:45.286Z,11.66
2023-02-16T20:06:20.975Z,11.66
2023-02-16T20:08:48.920Z,11.66
2023-02-16T20:11:17.590Z,11.65
2023-02-16T20:13:44.160Z,11.67
2023-02-16T20:16:12.331Z,11.67
2023-02-16T20:18:39.574Z,11.67
2023-02-16T20:21:08.658Z,11.67
2023-02-16T20:23:35.956Z,11.67
2023-02-16T20:26:10.336Z,11.67
2023-02-16T20:28:37.330Z,11.67
2023-02-16T20:31:11.068Z,11.67
2023-02-16T20:33:37.784Z,11.64
2023-02-16T20:36:04.733Z,11.65
2023-02-16T20:38:32.629Z,11.65
2023-02-16T20:40:59.164Z,11.65
2023-02-16T20:43:25.867Z,11.64
2023-02-16T20:45:52.383Z,11.64
2023-02-16T20:48:19.604Z,11.63
2023-02-16T20:50:46.157Z,11.63
2023-02-16T20:53:12.680Z,11.61
2023-02-16T20:55:39.200Z,11.60
2023-02-16T20:58:05.714Z,11.60
2023-02-16T21:00:32.332Z,11.59
2023-02-16T21:02:59.492Z,11.59
2023-02-16T21:05:26.290Z,11.57
2023-02-16T21:07:53.174Z,11.59
2023-02-16T21:10:20.144Z,11.57
2023-02-16T21:12:46.662Z,11.57
2023-02-16T21:15:13.296Z,11.55
2023-02-16T21:17:40.260Z,11.57
2023-02-16T21:20:07.710Z,11.56
2023-02-16T21:22:34.863Z,11.55
2023-02-16T21:25:01.772Z,11.55
2023-02-16T21:27:28.326Z,11.55
2023-02-16T21:29:54.904Z,11.55
2023-02-16T21:32:21.496Z,11.56
2023-02-16T21:34:48.003Z,11.57
2023-02-16T21:37:14.532Z,11.56
2023-02-16T21:40:07.599Z,11.54
2023-02-16T21:42:34.889Z,11.54
2023-02-16T21:45:13.954Z,11.55
2023-02-16T21:48:01.300Z,11.55
2023-02-16T21:50:29.260Z,11.55
2023-02-16T21:52:56.220Z,11.55
2023-02-16T21:55:41.310Z,11.58
2023-02-16T21:58:08.387Z,11.58
2023-02-16T22:00:35.973Z,11.61
2023-02-16T22:03:04.747Z,11.60
2023-02-16T22:05:33.187Z,11.61
2023-02-16T22:07:59.904Z,11.61
2023-02-16T22:10:28.513Z,11.62
2023-02-16T22:12:56.213Z,11.60
2023-02-16T22:15:23.080Z,11.61
2023-02-16T22:17:49.632Z,11.60
2023-02-16T22:20:16.913Z,11.59
2023-02-16T22:22:43.943Z,11.59
2023-02-16T22:25:12.071Z,11.58
2023-02-16T22:27:39.028Z,11.57
2023-02-16T22:30:06.968Z,11.56
2023-02-16T22:32:33.678Z,11.55
2023-02-16T22:35:00.163Z,11.55
2023-02-16T22:37:26.768Z,11.53
2023-02-16T22:39:55.191Z,11.52
2023-02-16T22:42:22.762Z,11.52
2023-02-16T22:44:49.457Z,11.51
2023-02-16T22:47:16.150Z,11.51
2023-02-16T22:49:42.857Z,11.51
2023-02-16T22:52:11.382Z,11.50
2023-02-16T22:54:38.370Z,11.51
2023-02-16T22:57:07.167Z,11.51
2023-02-16T22:59:34.151Z,11.51
2023-02-16T23:02:00.823Z,11.51
2023-02-16T23:04:27.738Z,11.52
2023-02-16T23:06:54.307Z,11.54
2023-02-16T23:09:22.054Z,11.55
2023-02-16T23:11:49.630Z,11.57
2023-02-16T23:14:16.633Z,11.59
2023-02-16T23:16:48.971Z,11.58
2023-02-16T23:19:18.664Z,11.60
2023-02-16T23:21:46.073Z,11.61
2023-02-16T23:24:18.661Z,11.62
2023-02-16T23:26:45.985Z,11.62
2023-02-16T23:29:13.650Z,11.63
2023-02-16T23:31:42.983Z,11.62
2023-02-16T23:34:11.436Z,11.64
2023-02-16T23:36:39.069Z,11.64
2023-02-16T23:39:11.788Z,11.65
2023-02-16T23:41:38.824Z,11.66
2023-02-16T23:44:07.633Z,11.66
2023-02-16T23:46:34.413Z,11.68
2023-02-16T23:49:00.979Z,11.68
2023-02-16T23:51:28.032Z,11.68
2023-02-16T23:53:54.902Z,11.69
2023-02-16T23:56:26.246Z,11.71
2023-02-16T23:58:57.467Z,11.72
